Time;durP1;ratioP1;P1;durP2;ratioP2;P2;SDS_P1;SDS_P2;PMS_P1;PMS_P2;Temp;Humidity;BMP_temperature;BMP_pressure;BME280_temperature;BME280_humidity;BME280_pressure;Samples;Min_cycle;Max_cycle;Signal;HPM_P1;HPM_P2
2021/06/23 00:01:30;;;;;;;3.55;2.17;;;17.90;99.90;;;;;;4942257;28;20533;-84
2021/06/23 00:03:56;;;;;;;3.00;2.00;;;17.90;99.90;;;;;;4951498;28;20047;-84
2021/06/23 00:06:22;;;;;;;1.88;1.55;;;17.90;99.90;;;;;;4946035;28;20389;-85
2021/06/23 00:08:47;;;;;;;2.83;1.90;;;17.80;99.90;;;;;;4951467;28;20515;-84
2021/06/23 00:11:13;;;;;;;2.72;2.10;;;17.80;99.90;;;;;;4942131;28;20387;-85
2021/06/23 00:13:39;;;;;;;2.38;1.80;;;17.80;99.90;;;;;;4950927;28;20035;-84
2021/06/23 00:16:07;;;;;;;2.25;1.70;;;17.80;99.90;;;;;;4943562;28;20111;-84
2021/06/23 00:18:33;;;;;;;2.85;2.00;;;17.80;99.90;;;;;;4949379;28;20118;-84
2021/06/23 00:20:59;;;;;;;2.22;1.70;;;17.80;99.90;;;;;;4946679;28;20030;-84
2021/06/23 00:23:24;;;;;;;2.40;1.88;;;17.80;99.90;;;;;;4951575;28;20110;-84
2021/06/23 00:25:51;;;;;;;2.63;1.80;;;17.80;99.90;;;;;;4952081;28;20019;-84
2021/06/23 00:28:16;;;;;;;2.15;1.60;;;17.80;99.90;;;;;;4935646;29;20035;-84
2021/06/23 00:30:42;;;;;;;1.92;1.60;;;17.70;99.90;;;;;;4951043;28;20027;-84
2021/06/23 00:33:15;;;;;;;1.83;1.70;;;17.60;99.90;;;;;;4952172;28;20059;-84
2021/06/23 00:35:41;;;;;;;1.98;1.55;;;17.70;99.90;;;;;;4957602;28;20031;-84
2021/06/23 00:38:07;;;;;;;1.70;1.60;;;17.70;99.90;;;;;;4966315;28;20507;-84
2021/06/23 00:40:35;;;;;;;2.05;1.60;;;17.80;99.90;;;;;;4949470;28;20217;-84
2021/06/23 00:43:02;;;;;;;3.33;1.80;;;17.80;99.90;;;;;;4950700;28;20023;-84
2021/06/23 00:45:29;;;;;;;1.58;1.25;;;17.70;99.90;;;;;;4948380;28;20691;-84
2021/06/23 00:47:56;;;;;;;2.08;1.65;;;17.70;99.90;;;;;;4954311;28;20019;-84
2021/06/23 00:50:22;;;;;;;2.60;2.10;;;17.60;99.90;;;;;;4936471;29;20031;-84
2021/06/23 00:52:51;;;;;;;2.53;1.83;;;17.70;99.90;;;;;;4954191;28;20031;-84
2021/06/23 00:55:21;;;;;;;2.05;1.85;;;17.70;99.90;;;;;;4947787;28;20046;-84
2021/06/23 00:57:50;;;;;;;4.93;1.75;;;17.60;99.90;;;;;;4946011;29;20247;-84
2021/06/23 01:00:25;;;;;;;2.15;1.95;;;17.50;99.90;;;;;;4948517;28;20028;-84
2021/06/23 01:02:52;;;;;;;2.15;1.67;;;17.50;99.90;;;;;;4950124;28;20031;-84
2021/06/23 01:05:19;;;;;;;2.00;1.80;;;17.60;99.90;;;;;;4955474;28;20031;-84
2021/06/23 01:07:47;;;;;;;2.10;1.85;;;17.70;99.90;;;;;;4950266;29;20035;-84
2021/06/23 01:10:13;;;;;;;2.13;1.75;;;17.70;99.90;;;;;;4936579;29;20462;-84
2021/06/23 01:13:33;;;;;;;3.63;1.90;;;17.80;99.90;;;;;;4948761;28;20116;-84
2021/06/23 01:16:04;;;;;;;2.38;2.08;;;17.80;99.90;;;;;;4925236;29;20897;-84
2021/06/23 01:18:33;;;;;;;2.42;1.85;;;17.70;99.90;;;;;;4953825;28;20117;-85
2021/06/23 01:21:00;;;;;;;4.60;1.90;;;17.70;99.90;;;;;;4954925;28;20031;-84
2021/06/23 01:23:25;;;;;;;2.40;2.13;;;17.60;99.90;;;;;;4966661;28;20022;-84
2021/06/23 01:25:51;;;;;;;2.00;1.80;;;17.60;99.90;;;;;;4956300;28;20385;-84
2021/06/23 01:28:18;;;;;;;3.45;2.50;;;17.60;99.90;;;;;;4948198;28;20023;-84
2021/06/23 01:30:44;;;;;;;4.25;2.30;;;17.60;99.90;;;;;;4954982;28;20062;-85
2021/06/23 01:33:11;;;;;;;2.33;2.10;;;17.60;99.90;;;;;;4959012;28;20027;-84
2021/06/23 01:35:36;;;;;;;3.03;2.10;;;17.60;99.90;;;;;;4970678;28;20061;-84
2021/06/23 01:38:04;;;;;;;3.45;1.80;;;17.60;99.90;;;;;;4957629;28;20385;-84
2021/06/23 01:40:31;;;;;;;3.85;1.98;;;17.70;99.90;;;;;;4947452;28;20397;-84
2021/06/23 01:42:58;;;;;;;3.08;2.60;;;17.80;99.90;;;;;;4958989;28;20042;-84
2021/06/23 01:45:24;;;;;;;2.90;2.42;;;17.70;99.90;;;;;;4960901;28;20047;-84
2021/06/23 01:47:50;;;;;;;3.55;2.33;;;17.70;99.90;;;;;;4957929;28;20026;-84
2021/06/23 01:50:16;;;;;;;3.33;2.40;;;17.70;99.90;;;;;;4946293;28;20496;-84
2021/06/23 01:52:42;;;;;;;2.72;2.50;;;17.70;99.90;;;;;;4958474;28;20113;-84
2021/06/23 01:55:26;;;;;;;3.83;2.83;;;17.70;99.90;;;;;;4963794;28;20037;-84
2021/06/23 01:58:06;;;;;;;3.83;2.83;;;17.70;99.90;;;;;;4953508;28;20027;-84
2021/06/23 02:01:02;;;;;;;5.38;3.10;;;17.70;99.90;;;;;;4950323;28;20283;-83
2021/06/23 02:03:52;;;;;;;4.50;2.78;;;17.60;99.90;;;;;;4966196;28;20035;-83
2021/06/23 02:06:32;;;;;;;5.97;3.20;;;17.60;99.90;;;;;;4958187;28;20015;-83
2021/06/23 02:09:16;;;;;;;5.50;3.67;;;17.70;99.90;;;;;;4986693;28;20049;-83
2021/06/23 02:11:47;;;;;;;3.88;3.20;;;17.70;99.90;;;;;;4966070;28;20024;-83
2021/06/23 02:14:39;;;;;;;4.82;4.07;;;17.70;99.90;;;;;;4972025;28;20035;-87
2021/06/23 02:17:09;;;;;;;3.88;3.50;;;17.80;99.90;;;;;;4950806;28;20103;-83
2021/06/23 02:19:42;;;;;;;5.47;3.90;;;17.80;99.90;;;;;;4972598;28;20069;-83
2021/06/23 02:22:30;;;;;;;4.20;3.80;;;17.80;99.90;;;;;;4948678;28;20151;-83
2021/06/23 02:25:06;;;;;;;6.45;4.50;;;17.80;99.90;;;;;;4964343;28;20037;-83
2021/06/23 02:27:32;;;;;;;6.18;4.35;;;17.80;99.90;;;;;;4950672;28;20015;-83
2021/06/23 02:30:00;;;;;;;5.88;4.45;;;17.80;99.90;;;;;;4963296;28;20487;-83
2021/06/23 02:32:29;;;;;;;6.40;5.22;;;17.70;99.90;;;;;;4962767;28;20026;-83
2021/06/23 02:34:56;;;;;;;7.93;5.75;;;17.70;99.90;;;;;;4947343;29;20067;-84
2021/06/23 02:37:24;;;;;;;5.30;4.80;;;17.70;99.90;;;;;;4951963;28;20029;-83
2021/06/23 02:39:50;;;;;;;8.68;5.45;;;17.70;99.90;;;;;;4963940;28;20024;-83
2021/06/23 02:42:16;;;;;;;11.27;5.68;;;17.70;99.90;;;;;;4952119;28;20022;-83
2021/06/23 02:44:42;;;;;;;6.20;5.60;;;17.70;99.90;;;;;;4967023;28;20070;-83
2021/06/23 02:47:10;;;;;;;8.25;5.95;;;17.60;99.90;;;;;;4958568;28;20445;-83
2021/06/23 02:49:37;;;;;;;7.32;5.63;;;17.50;99.90;;;;;;4967516;28;20078;-83
2021/06/23 02:52:05;;;;;;;6.38;5.43;;;17.50;99.90;;;;;;4956076;28;20196;-83
2021/06/23 02:54:31;;;;;;;7.53;6.18;;;17.50;99.90;;;;;;4967769;28;20141;-83
2021/06/23 02:56:57;;;;;;;9.35;6.93;;;17.40;99.90;;;;;;4955075;28;20543;-83
2021/06/23 02:59:25;;;;;;;8.35;6.10;;;17.30;99.90;;;;;;4967977;28;20103;-84
2021/06/23 03:01:52;;;;;;;7.47;6.43;;;17.30;99.90;;;;;;4953246;28;20420;-83
2021/06/23 03:04:18;;;;;;;8.20;6.40;;;17.40;99.90;;;;;;4967292;28;20061;-83
2021/06/23 03:06:43;;;;;;;8.70;6.57;;;17.50;99.90;;;;;;4951143;28;20050;-83
2021/06/23 03:09:09;;;;;;;7.20;6.45;;;17.50;99.90;;;;;;4964987;28;20102;-83
2021/06/23 03:11:38;;;;;;;7.82;6.53;;;17.50;99.90;;;;;;4964976;28;20592;-83
2021/06/23 03:14:04;;;;;;;10.63;6.90;;;17.40;99.90;;;;;;4963604;28;20121;-83
2021/06/23 03:16:30;;;;;;;9.35;6.30;;;17.50;99.90;;;;;;4951399;28;20023;-83
2021/06/23 03:18:56;;;;;;;7.00;6.30;;;17.40;99.90;;;;;;4962066;28;20252;-83
2021/06/23 03:21:22;;;;;;;9.13;6.88;;;17.40;99.90;;;;;;4948310;28;20031;-83
2021/06/23 03:23:50;;;;;;;8.20;6.40;;;17.50;99.90;;;;;;4960694;28;20055;-83
2021/06/23 03:26:16;;;;;;;12.27;6.68;;;17.50;99.90;;;;;;4951006;28;20027;-83
2021/06/23 03:28:41;;;;;;;10.48;6.95;;;17.60;99.90;;;;;;4959801;28;20026;-83
2021/06/23 03:31:07;;;;;;;10.15;7.25;;;17.60;99.90;;;;;;4948982;28;20121;-83
2021/06/23 03:33:33;;;;;;;8.82;6.30;;;17.60;99.90;;;;;;4955539;28;20535;-83
2021/06/23 03:35:59;;;;;;;10.63;6.80;;;17.60;99.90;;;;;;4952381;28;20028;-83
2021/06/23 03:38:24;;;;;;;8.55;6.63;;;17.60;99.90;;;;;;4951400;28;20495;-83
2021/06/23 03:40:50;;;;;;;11.27;7.47;;;17.60;99.90;;;;;;4960437;28;20062;-83
2021/06/23 03:43:19;;;;;;;7.30;6.38;;;17.60;99.90;;;;;;4978014;28;20018;-83
2021/06/23 03:45:46;;;;;;;11.90;6.97;;;17.60;99.90;;;;;;4959079;28;20047;-83
2021/06/23 03:48:12;;;;;;;7.78;6.97;;;17.60;99.90;;;;;;4960802;28;20034;-83
2021/06/23 03:50:38;;;;;;;9.35;7.35;;;17.60;99.90;;;;;;4934151;28;20399;-83
2021/06/23 03:53:05;;;;;;;7.13;5.97;;;17.60;99.90;;;;;;4948464;28;20560;-83
2021/06/23 03:55:31;;;;;;;7.30;6.60;;;17.70;99.90;;;;;;4950563;28;20074;-83
2021/06/23 03:57:58;;;;;;;7.38;6.13;;;17.70;99.90;;;;;;4950225;29;20055;-83
2021/06/23 04:00:27;;;;;;;8.20;6.30;;;17.60;99.90;;;;;;4952728;28;20064;-83
2021/06/23 04:02:53;;;;;;;8.00;5.88;;;17.60;99.90;;;;;;4950398;28;20481;-83
2021/06/23 04:05:18;;;;;;;9.93;6.25;;;17.70;99.90;;;;;;4954322;28;20035;-83
2021/06/23 04:07:45;;;;;;;7.45;6.18;;;17.70;99.90;;;;;;4977391;28;20020;-83
2021/06/23 04:10:11;;;;;;;9.65;6.65;;;17.60;99.90;;;;;;4950781;28;20156;-83
2021/06/23 04:12:37;;;;;;;8.25;6.13;;;17.60;99.90;;;;;;4953085;29;20020;-83
2021/06/23 04:15:05;;;;;;;9.57;6.60;;;17.60;99.90;;;;;;4951828;29;20054;-83
2021/06/23 04:17:31;;;;;;;9.43;6.50;;;17.60;99.90;;;;;;4952321;28;20495;-83
2021/06/23 04:19:56;;;;;;;13.35;7.22;;;17.60;99.90;;;;;;4952555;29;20035;-83
2021/06/23 04:22:24;;;;;;;7.47;6.47;;;17.70;99.90;;;;;;4942523;29;20059;-83
2021/06/23 04:24:51;;;;;;;9.55;7.55;;;17.60;99.90;;;;;;4951778;29;20394;-83
2021/06/23 04:27:17;;;;;;;14.18;8.63;;;17.70;99.90;;;;;;4951237;28;20176;-83
2021/06/23 04:29:42;;;;;;;9.57;8.50;;;17.60;99.90;;;;;;4952845;29;20183;-83
2021/06/23 04:32:08;;;;;;;10.15;7.88;;;17.60;99.90;;;;;;4950089;28;20050;-83
2021/06/23 04:34:34;;;;;;;11.48;7.80;;;17.60;99.90;;;;;;4953029;29;20347;-86
2021/06/23 04:37:00;;;;;;;14.07;8.45;;;17.60;99.90;;;;;;4949905;28;20034;-86
2021/06/23 04:39:26;;;;;;;10.98;7.97;;;17.60;99.90;;;;;;4953292;28;20033;-84
2021/06/23 04:41:52;;;;;;;10.52;8.45;;;17.60;99.90;;;;;;4951067;29;20023;-83
2021/06/23 04:44:17;;;;;;;12.73;9.27;;;17.60;99.90;;;;;;4954364;28;20031;-85
2021/06/23 04:46:43;;;;;;;9.63;8.15;;;17.60;99.90;;;;;;4949255;28;20030;-86
2021/06/23 04:49:09;;;;;;;12.52;8.90;;;17.60;99.90;;;;;;4953855;29;20106;-85
2021/06/23 04:51:38;;;;;;;14.20;9.98;;;17.60;99.90;;;;;;4949463;28;20024;-86
2021/06/23 04:54:04;;;;;;;10.73;9.43;;;17.60;99.90;;;;;;4952742;29;20035;-86
2021/06/23 04:56:30;;;;;;;12.45;9.23;;;17.60;99.90;;;;;;4949282;29;20087;-86
2021/06/23 04:58:58;;;;;;;13.63;9.80;;;17.50;99.90;;;;;;4950704;29;20114;-86
2021/06/23 05:01:24;;;;;;;12.25;8.75;;;17.60;99.90;;;;;;4948657;29;20536;-86
2021/06/23 05:03:49;;;;;;;13.75;9.55;;;17.50;99.90;;;;;;4975503;28;20126;-85
2021/06/23 05:06:15;;;;;;;13.07;9.55;;;17.50;99.90;;;;;;4947253;28;20042;-85
2021/06/23 05:08:42;;;;;;;12.93;8.98;;;17.50;99.90;;;;;;4947427;29;20031;-85
2021/06/23 05:11:08;;;;;;;11.43;8.15;;;17.50;99.90;;;;;;4947618;29;20035;-85
2021/06/23 05:13:36;;;;;;;10.50;8.75;;;17.50;99.90;;;;;;4953894;29;20295;-85
2021/06/23 05:16:03;;;;;;;14.85;9.75;;;17.50;99.90;;;;;;4947947;29;20011;-85
2021/06/23 05:18:29;;;;;;;10.50;8.93;;;17.50;99.90;;;;;;4953959;29;20038;-85
2021/06/23 05:20:59;;;;;;;12.35;9.07;;;17.50;99.90;;;;;;4969014;28;20562;-85
2021/06/23 05:23:24;;;;;;;13.98;9.68;;;17.50;99.90;;;;;;4953849;28;20027;-86
2021/06/23 05:25:52;;;;;;;14.63;9.15;;;17.60;99.90;;;;;;4948141;29;20082;-85
2021/06/23 05:28:17;;;;;;;11.55;9.32;;;17.60;99.90;;;;;;4954078;28;20118;-86
2021/06/23 05:30:43;;;;;;;13.20;8.98;;;17.60;99.90;;;;;;4947672;29;20099;-85
2021/06/23 05:33:09;;;;;;;12.27;10.18;;;17.60;99.90;;;;;;4953299;29;20090;-85
2021/06/23 05:35:35;;;;;;;14.43;10.68;;;17.70;99.90;;;;;;4947954;29;20016;-85
2021/06/23 05:38:00;;;;;;;13.75;10.07;;;17.70;99.90;;;;;;4953439;28;20032;-85
2021/06/23 05:40:26;;;;;;;12.25;9.23;;;17.80;99.90;;;;;;4951639;28;20443;-85
2021/06/23 05:42:52;;;;;;;11.02;8.82;;;17.80;99.90;;;;;;4974068;28;20031;-85
2021/06/23 05:45:17;;;;;;;10.10;9.00;;;17.80;99.90;;;;;;4977218;28;20030;-85
2021/06/23 05:47:43;;;;;;;9.85;8.07;;;17.90;99.90;;;;;;4957500;28;20038;-85
2021/06/23 05:50:09;;;;;;;9.68;7.90;;;17.90;99.90;;;;;;4927329;28;20026;-75
2021/06/23 05:52:35;;;;;;;9.35;8.32;;;17.80;99.90;;;;;;4951297;28;20511;-76
2021/06/23 05:55:02;;;;;;;10.02;8.20;;;17.80;99.90;;;;;;4948781;28;20038;-76
2021/06/23 05:57:27;;;;;;;11.25;8.98;;;17.80;99.90;;;;;;4949372;28;20019;-76
2021/06/23 05:59:53;;;;;;;10.52;8.73;;;17.80;99.90;;;;;;4953976;28;20474;-76
2021/06/23 06:02:18;;;;;;;12.43;9.32;;;17.70;99.90;;;;;;4948112;28;20647;-76
2021/06/23 06:04:44;;;;;;;9.60;7.95;;;17.80;99.90;;;;;;4951759;28;20032;-75
2021/06/23 06:07:10;;;;;;;10.38;8.98;;;17.90;99.90;;;;;;4947949;28;20502;-75
2021/06/23 06:09:36;;;;;;;11.30;9.55;;;17.90;99.90;;;;;;4950609;28;20556;-76
2021/06/23 06:12:01;;;;;;;12.55;9.75;;;17.80;99.90;;;;;;4947303;28;20043;-76
2021/06/23 06:14:27;;;;;;;11.55;9.00;;;17.90;99.90;;;;;;4951622;29;20047;-75
2021/06/23 06:16:52;;;;;;;15.00;9.40;;;17.90;99.90;;;;;;4941444;28;20051;-76
2021/06/23 06:19:18;;;;;;;14.13;9.98;;;18.00;99.90;;;;;;4952138;29;20124;-76
2021/06/23 06:21:44;;;;;;;12.85;10.43;;;17.90;99.90;;;;;;4941530;29;20501;-80
2021/06/23 06:24:10;;;;;;;12.45;10.13;;;17.90;99.90;;;;;;4952033;29;20034;-78
2021/06/23 06:26:35;;;;;;;13.55;10.80;;;17.80;99.90;;;;;;4949266;29;20039;-75
2021/06/23 06:29:02;;;;;;;13.00;9.75;;;17.90;99.90;;;;;;4951483;28;20098;-77
2021/06/23 06:31:28;;;;;;;12.48;9.50;;;18.00;99.90;;;;;;4950591;28;20046;-75
2021/06/23 06:33:54;;;;;;;11.98;9.30;;;18.00;99.90;;;;;;4952541;28;20035;-75
2021/06/23 06:36:20;;;;;;;14.05;8.82;;;18.20;99.90;;;;;;4952056;28;20513;-75
2021/06/23 06:38:47;;;;;;;10.32;9.23;;;18.40;99.90;;;;;;4951025;28;20027;-75
2021/06/23 06:41:12;;;;;;;10.50;8.55;;;18.60;99.90;;;;;;4949687;29;20028;-76
2021/06/23 06:43:38;;;;;;;11.93;9.25;;;18.60;99.90;;;;;;4950546;29;20378;-75
2021/06/23 06:46:04;;;;;;;13.73;10.27;;;18.60;99.90;;;;;;4948795;28;20110;-76
2021/06/23 06:48:29;;;;;;;14.20;10.32;;;18.60;99.90;;;;;;4949510;28;20066;-76
2021/06/23 06:50:55;;;;;;;14.25;11.07;;;18.60;99.90;;;;;;4947891;29;20505;-75
2021/06/23 06:53:21;;;;;;;15.35;11.23;;;18.60;99.90;;;;;;4952718;28;20039;-76
2021/06/23 06:55:47;;;;;;;13.63;11.07;;;18.60;99.90;;;;;;4953334;28;20533;-76
2021/06/23 06:58:14;;;;;;;14.80;11.75;;;18.50;99.90;;;;;;4959602;28;20393;-76
2021/06/23 07:00:40;;;;;;;20.35;11.48;;;18.40;99.90;;;;;;4954799;28;20028;-76
2021/06/23 07:03:06;;;;;;;18.67;11.13;;;18.40;99.90;;;;;;4955268;28;20035;-76
2021/06/23 07:05:31;;;;;;;15.68;11.20;;;18.50;99.90;;;;;;4950326;28;20035;-76
2021/06/23 07:07:57;;;;;;;16.65;12.30;;;18.50;99.90;;;;;;4946692;29;20028;-76
2021/06/23 07:10:23;;;;;;;17.48;12.77;;;18.50;99.90;;;;;;4946021;28;20560;-77
2021/06/23 07:12:49;;;;;;;24.90;13.65;;;18.40;99.90;;;;;;4950561;28;20035;-76
2021/06/23 07:15:16;;;;;;;17.52;12.55;;;18.20;99.90;;;;;;4947050;29;20049;-77
2021/06/23 07:17:41;;;;;;;19.45;11.55;;;18.30;99.90;;;;;;4949550;28;20051;-76
2021/06/23 07:20:08;;;;;;;22.88;13.18;;;18.20;99.90;;;;;;4931291;29;20058;-76
2021/06/23 07:22:33;;;;;;;18.85;11.88;;;18.10;99.90;;;;;;4948678;28;20058;-76
2021/06/23 07:24:59;;;;;;;16.25;12.30;;;17.90;99.90;;;;;;4932263;29;20073;-76
2021/06/23 07:27:26;;;;;;;16.55;11.57;;;18.10;99.90;;;;;;4948020;28;20035;-77
2021/06/23 07:29:54;;;;;;;17.23;11.52;;;18.20;99.90;;;;;;4952668;28;20039;-76
2021/06/23 07:32:29;;;;;;;15.10;11.80;;;18.30;99.90;;;;;;4954183;29;20031;-76
2021/06/23 07:37:40;;;;;;;14.05;10.57;;;18.20;99.90;;;;;;4953209;28;20090;-76
2021/06/23 07:40:06;;;;;;;16.95;11.25;;;18.30;99.90;;;;;;4952809;28;20488;-76
2021/06/23 07:42:32;;;;;;;14.90;11.63;;;18.30;99.90;;;;;;4953896;28;20015;-76
2021/06/23 07:45:00;;;;;;;14.13;11.20;;;18.20;99.90;;;;;;4952720;29;20039;-76
2021/06/23 07:47:29;;;;;;;14.60;10.48;;;18.30;99.90;;;;;;4952765;29;20062;-76
2021/06/23 07:49:55;;;;;;;15.23;10.55;;;18.40;99.90;;;;;;4952995;28;20054;-76
2021/06/23 08:08:39;;;;;;;14.27;11.00;;;18.40;99.90;;;;;;4949346;29;20046;-76
2021/06/23 08:11:15;;;;;;;13.98;10.73;;;18.40;99.90;;;;;;4936072;29;20055;-76
2021/06/23 08:13:42;;;;;;;14.55;10.95;;;18.50;99.90;;;;;;4953805;28;20279;-76
2021/06/23 08:16:07;;;;;;;17.38;12.45;;;18.60;99.90;;;;;;4951105;28;20527;-76
2021/06/23 08:18:33;;;;;;;16.40;12.20;;;18.60;99.90;;;;;;4953885;28;20023;-75
2021/06/23 08:20:58;;;;;;;17.48;12.73;;;18.60;99.90;;;;;;4949960;28;20032;-76
2021/06/23 08:23:24;;;;;;;15.80;11.90;;;18.50;99.90;;;;;;4953887;28;20027;-76
2021/06/23 08:25:50;;;;;;;18.48;13.45;;;18.60;99.90;;;;;;4951594;28;20334;-76
2021/06/23 08:28:15;;;;;;;18.30;13.30;;;18.60;99.90;;;;;;4948499;28;20028;-76
2021/06/23 08:30:42;;;;;;;16.73;13.25;;;18.50;99.90;;;;;;4950675;28;20046;-76
2021/06/23 08:33:07;;;;;;;19.27;12.98;;;18.50;99.90;;;;;;4953923;28;20167;-76
2021/06/23 08:35:33;;;;;;;17.23;13.23;;;18.60;99.90;;;;;;4949591;28;20554;-76
2021/06/23 08:37:59;;;;;;;18.35;13.73;;;18.70;99.90;;;;;;4953404;28;20106;-76
2021/06/23 08:40:25;;;;;;;18.50;14.35;;;18.80;99.90;;;;;;4960381;28;20035;-76
2021/06/23 08:42:51;;;;;;;17.25;13.60;;;18.70;99.90;;;;;;4954776;28;20034;-76
2021/06/23 08:45:17;;;;;;;20.20;13.48;;;18.80;99.90;;;;;;4964676;28;20058;-76
2021/06/23 08:47:45;;;;;;;17.98;12.52;;;18.80;99.90;;;;;;4953625;28;20134;-76
2021/06/23 08:50:14;;;;;;;15.73;12.00;;;19.00;99.90;;;;;;4950031;28;20022;-76
2021/06/23 08:52:40;;;;;;;16.67;12.23;;;19.00;99.90;;;;;;4951182;28;20050;-76
2021/06/23 08:55:06;;;;;;;18.98;12.88;;;18.90;99.90;;;;;;4950344;28;20031;-76
2021/06/23 08:57:35;;;;;;;18.17;13.25;;;19.00;99.90;;;;;;4967152;28;20484;-76
2021/06/23 09:00:05;;;;;;;16.38;12.85;;;19.00;99.90;;;;;;4965852;28;20030;-76
2021/06/23 09:02:31;;;;;;;16.50;12.85;;;19.10;99.90;;;;;;4951449;28;20020;-76
2021/06/23 09:05:00;;;;;;;20.77;13.68;;;18.90;99.90;;;;;;4951334;28;20037;-76
2021/06/23 09:07:52;;;;;;;17.58;13.20;;;18.90;99.90;;;;;;4953252;28;20023;-77
2021/06/23 09:10:21;;;;;;;15.93;12.82;;;18.90;99.90;;;;;;4948381;28;20412;-76
2021/06/23 09:13:07;;;;;;;14.40;11.82;;;19.00;99.90;;;;;;4951783;28;20397;-77
2021/06/23 09:15:55;;;;;;;16.05;13.52;;;19.00;99.90;;;;;;4940068;28;20042;-76
2021/06/23 09:18:35;;;;;;;17.15;13.82;;;19.00;99.90;;;;;;4956719;28;20027;-76
2021/06/23 09:21:20;;;;;;;18.27;14.40;;;19.10;99.90;;;;;;4946811;28;20051;-76
2021/06/23 09:23:46;;;;;;;18.17;13.38;;;19.10;99.90;;;;;;4953146;28;20099;-76
2021/06/23 09:26:24;;;;;;;19.10;14.00;;;19.10;99.90;;;;;;4946227;28;20608;-76
2021/06/23 09:29:13;;;;;;;19.55;13.30;;;19.10;99.90;;;;;;4952888;28;20191;-75
2021/06/23 09:31:53;;;;;;;16.42;13.07;;;19.10;99.90;;;;;;4928991;29;20058;-76
2021/06/23 09:34:24;;;;;;;16.38;13.35;;;19.00;99.90;;;;;;4952745;28;20035;-76
2021/06/23 09:36:51;;;;;;;16.40;13.65;;;18.90;99.90;;;;;;4951123;28;20050;-76
2021/06/23 09:39:28;;;;;;;21.60;15.77;;;18.90;99.90;;;;;;4953349;28;20027;-76
2021/06/23 09:41:54;;;;;;;19.90;15.75;;;18.80;99.90;;;;;;4951320;29;20031;-76
2021/06/23 09:44:22;;;;;;;19.42;15.40;;;18.70;99.90;;;;;;4953117;29;20107;-75
2021/06/23 09:46:49;;;;;;;20.30;15.55;;;18.60;99.90;;;;;;4950528;29;20042;-75
2021/06/23 09:49:18;;;;;;;19.90;15.10;;;18.50;99.90;;;;;;4952455;29;20027;-75
2021/06/23 09:51:53;;;;;;;19.08;15.88;;;18.50;99.90;;;;;;4951821;28;20027;-76
2021/06/23 09:54:25;;;;;;;21.55;16.92;;;18.60;99.90;;;;;;4952560;28;20046;-75
2021/06/23 09:56:51;;;;;;;19.65;17.00;;;18.60;99.90;;;;;;4958214;28;20027;-75
2021/06/23 09:59:38;;;;;;;26.27;16.80;;;18.50;99.90;;;;;;4954730;28;20038;-75
2021/06/23 10:02:19;;;;;;;22.48;16.95;;;18.40;99.90;;;;;;4951716;29;20031;-75
2021/06/23 10:04:45;;;;;;;20.55;15.93;;;18.30;99.90;;;;;;4951909;28;20058;-75
2021/06/23 10:07:12;;;;;;;19.40;15.38;;;18.30;99.90;;;;;;4951737;28;20055;-76
2021/06/23 10:09:38;;;;;;;23.70;16.25;;;18.50;99.90;;;;;;4951505;28;20052;-75
2021/06/23 10:12:08;;;;;;;19.23;15.50;;;18.50;99.90;;;;;;4951781;28;20070;-75
2021/06/23 10:14:41;;;;;;;20.20;15.98;;;18.50;99.90;;;;;;4950398;29;20035;-76
2021/06/23 10:17:08;;;;;;;21.38;15.40;;;18.50;99.90;;;;;;4951729;29;20055;-75
2021/06/23 10:19:34;;;;;;;17.52;14.57;;;18.50;99.90;;;;;;4951702;29;20027;-76
2021/06/23 10:22:02;;;;;;;21.27;15.35;;;18.50;99.90;;;;;;4951642;28;20030;-76
2021/06/23 10:24:29;;;;;;;20.90;15.43;;;18.50;99.90;;;;;;4950328;29;20019;-76
2021/06/23 10:26:58;;;;;;;18.52;14.35;;;18.40;99.90;;;;;;4951035;28;20052;-75
2021/06/23 10:29:26;;;;;;;16.33;14.23;;;18.60;99.90;;;;;;4952128;28;20262;-76
2021/06/23 10:31:53;;;;;;;16.77;14.00;;;18.70;99.90;;;;;;4950665;28;20078;-76
2021/06/23 10:34:20;;;;;;;23.60;14.15;;;18.90;99.90;;;;;;4951433;29;20045;-76
2021/06/23 10:36:47;;;;;;;19.30;14.18;;;19.10;99.90;;;;;;4951611;28;20447;-75
2021/06/23 10:39:17;;;;;;;17.77;14.88;;;19.10;99.90;;;;;;4951177;28;20106;-75
2021/06/23 10:41:46;;;;;;;17.92;14.10;;;19.10;99.90;;;;;;4923950;29;20028;-75
2021/06/23 10:44:17;;;;;;;18.13;14.00;;;19.20;99.90;;;;;;4951605;28;20115;-76
2021/06/23 10:46:44;;;;;;;17.90;12.95;;;19.20;99.90;;;;;;4950556;29;20019;-76
2021/06/23 10:49:15;;;;;;;19.70;13.63;;;19.40;99.90;;;;;;4951310;29;20051;-76
2021/06/23 10:51:41;;;;;;;14.57;12.73;;;19.40;99.90;;;;;;4950977;28;20022;-75
2021/06/23 10:54:31;;;;;;;16.02;13.30;;;19.60;99.90;;;;;;4951115;28;20039;-75
2021/06/23 10:56:57;;;;;;;14.90;12.32;;;19.80;99.90;;;;;;4950843;28;20026;-75
2021/06/23 10:59:35;;;;;;;18.17;13.27;;;19.90;99.90;;;;;;4951108;28;20447;-77
2021/06/23 11:02:09;;;;;;;14.05;12.52;;;19.90;99.90;;;;;;4950082;28;20020;-75
2021/06/23 11:05:06;;;;;;;17.48;13.48;;;19.90;99.90;;;;;;4950621;29;20123;-76
2021/06/23 11:07:44;;;;;;;15.95;12.65;;;20.10;99.90;;;;;;4938787;29;20031;-75
2021/06/23 11:10:13;;;;;;;15.93;12.88;;;20.20;99.90;;;;;;4950423;29;20039;-76
2021/06/23 11:12:59;;;;;;;19.90;13.63;;;20.30;99.90;;;;;;4951367;28;20038;-77
2021/06/23 11:15:31;;;;;;;14.73;11.98;;;20.70;99.90;;;;;;4950619;29;20034;-76
2021/06/23 11:18:31;;;;;;;15.18;13.57;;;20.90;99.90;;;;;;4949045;29;20515;-76
2021/06/23 11:20:56;;;;;;;15.45;13.15;;;21.10;99.90;;;;;;4950374;28;20023;-77
2021/06/23 11:23:52;;;;;;;15.95;12.30;;;21.00;99.90;;;;;;4951159;28;20039;-76
2021/06/23 11:26:23;;;;;;;14.38;12.88;;;21.00;99.90;;;;;;4950554;28;20027;-76
2021/06/23 11:28:54;;;;;;;16.13;14.18;;;20.90;99.90;;;;;;4949627;28;20034;-77
2021/06/23 11:31:22;;;;;;;16.38;13.02;;;20.50;99.90;;;;;;4954440;28;20059;-77
2021/06/23 11:33:58;;;;;;;16.13;13.80;;;20.40;99.90;;;;;;4950893;28;20489;-77
2021/06/23 11:36:25;;;;;;;16.67;14.25;;;20.40;99.90;;;;;;4950306;28;20552;-77
2021/06/23 11:38:53;;;;;;;23.77;13.60;;;20.30;99.90;;;;;;4950352;28;20485;-77
2021/06/23 11:41:19;;;;;;;18.08;13.13;;;20.30;99.90;;;;;;4951015;28;20031;-77
2021/06/23 11:43:45;;;;;;;18.48;13.40;;;20.40;99.90;;;;;;4951001;28;20087;-76
2021/06/23 11:46:13;;;;;;;17.48;13.80;;;20.40;99.90;;;;;;4950594;29;20023;-77
2021/06/23 11:48:40;;;;;;;16.02;13.73;;;20.60;99.90;;;;;;4950930;28;20039;-76
2021/06/23 11:51:06;;;;;;;15.75;13.90;;;20.60;99.90;;;;;;4950618;28;20042;-76
2021/06/23 11:53:33;;;;;;;16.20;14.50;;;20.80;99.90;;;;;;4950041;28;20023;-78
2021/06/23 11:55:59;;;;;;;17.17;13.38;;;21.10;99.90;;;;;;4950206;29;20034;-75
2021/06/23 11:58:24;;;;;;;16.15;14.10;;;21.30;99.90;;;;;;4950736;28;20416;-76
2021/06/23 12:00:50;;;;;;;17.20;14.25;;;21.40;99.90;;;;;;4950302;28;20043;-76
2021/06/23 12:03:17;;;;;;;17.95;14.63;;;21.50;99.90;;;;;;4950715;28;20094;-76
2021/06/23 12:05:45;;;;;;;21.90;14.73;;;21.50;99.90;;;;;;4950120;28;20086;-77
2021/06/23 12:08:11;;;;;;;17.48;14.18;;;21.90;99.90;;;;;;4950902;28;20757;-76
2021/06/23 12:10:38;;;;;;;15.73;14.07;;;21.60;99.90;;;;;;4949777;28;20051;-76
2021/06/23 12:13:05;;;;;;;15.82;14.07;;;21.60;99.90;;;;;;4950135;28;20030;-76
2021/06/23 12:15:31;;;;;;;18.85;13.52;;;21.50;99.90;;;;;;4952842;28;20023;-76
2021/06/23 12:18:00;;;;;;;17.55;12.75;;;21.40;99.90;;;;;;4954883;28;20028;-76
2021/06/23 12:20:30;;;;;;;13.25;11.77;;;21.50;99.90;;;;;;4953496;28;20049;-76
2021/06/23 12:23:01;;;;;;;16.13;12.68;;;21.70;99.90;;;;;;4954196;28;20015;-76
2021/06/23 12:25:39;;;;;;;15.20;13.55;;;21.90;99.90;;;;;;4953269;28;20041;-76
2021/06/23 12:28:06;;;;;;;16.77;13.23;;;21.60;99.90;;;;;;4948913;28;20386;-76
2021/06/23 12:30:33;;;;;;;15.70;12.35;;;21.20;99.90;;;;;;4953389;28;20027;-76
2021/06/23 12:33:03;;;;;;;13.60;11.95;;;21.00;99.90;;;;;;4951748;28;20361;-77
2021/06/23 12:35:29;;;;;;;15.07;13.00;;;21.00;99.90;;;;;;4956219;28;20038;-77
2021/06/23 12:37:55;;;;;;;12.95;11.65;;;20.90;99.90;;;;;;4953590;28;20015;-77
2021/06/23 12:40:21;;;;;;;14.60;11.93;;;20.80;99.90;;;;;;4953544;28;20020;-76
2021/06/23 12:42:47;;;;;;;13.35;11.82;;;20.70;99.90;;;;;;4953509;28;20106;-76
2021/06/23 12:45:33;;;;;;;13.73;12.13;;;20.80;99.90;;;;;;4953206;28;20548;-77
2021/06/23 12:47:59;;;;;;;13.85;12.25;;;20.90;99.90;;;;;;4953285;28;20031;-77
2021/06/23 12:50:24;;;;;;;16.80;13.13;;;20.90;99.90;;;;;;4953037;28;20096;-77
2021/06/23 12:52:51;;;;;;;14.30;12.40;;;20.90;99.90;;;;;;4953331;28;20030;-77
2021/06/23 12:55:17;;;;;;;15.07;12.52;;;20.80;99.90;;;;;;4953252;28;20035;-77
2021/06/23 12:57:44;;;;;;;15.15;12.00;;;20.80;99.90;;;;;;4953595;28;20101;-77
2021/06/23 13:00:11;;;;;;;12.90;11.30;;;20.80;99.90;;;;;;4952816;28;20031;-77
2021/06/23 13:02:37;;;;;;;13.57;11.82;;;20.80;99.90;;;;;;4953235;28;20023;-77